createdAt,value
2018-02-09T00:00:36.750Z,99786.67
2018-02-09T00:03:04.315Z,99786.27
2018-02-09T00:05:31.878Z,99785.00
2018-02-09T00:07:59.495Z,99789.98
2018-02-09T00:10:27.126Z,99787.05
2018-02-09T00:12:54.745Z,99788.63
2018-02-09T00:15:22.310Z,99792.70
2018-02-09T00:17:49.893Z,99784.98
2018-02-09T00:20:17.523Z,99783.30
2018-02-09T00:22:52.933Z,99786.30
2018-02-09T00:25:20.507Z,99785.44
2018-02-09T00:27:48.067Z,99791.98
2018-02-09T00:30:15.747Z,99796.61
2018-02-09T00:32:43.315Z,99801.17
2018-02-09T00:35:10.875Z,99794.34
2018-02-09T00:37:38.519Z,99798.77
2018-02-09T00:40:06.098Z,99798.57
2018-02-09T00:42:33.744Z,99800.63
2018-02-09T00:45:01.470Z,99799.75
2018-02-09T00:47:29.099Z,99800.48
2018-02-09T00:49:56.646Z,99796.47
2018-02-09T00:52:24.218Z,99792.05
2018-02-09T00:54:51.774Z,99795.22
2018-02-09T00:57:19.342Z,99789.77
2018-02-09T00:59:46.909Z,99793.55
2018-02-09T01:02:14.577Z,99798.69
2018-02-09T01:04:42.158Z,99802.45
2018-02-09T01:07:09.741Z,99804.56
2018-02-09T01:09:37.310Z,99809.09
2018-02-09T01:12:04.926Z,99805.05
2018-02-09T01:14:32.562Z,99807.38
2018-02-09T01:17:00.130Z,99807.32
2018-02-09T01:19:27.707Z,99809.48
2018-02-09T01:21:55.331Z,99815.44
2018-02-09T01:24:22.945Z,99818.64
2018-02-09T01:26:50.506Z,99817.70
2018-02-09T01:29:18.066Z,99821.72
2018-02-09T01:31:45.646Z,99826.85
2018-02-09T01:34:13.222Z,99833.27
2018-02-09T01:36:40.856Z,99829.67
2018-02-09T01:39:08.494Z,99830.83
2018-02-09T01:41:36.123Z,99834.39
2018-02-09T01:44:03.703Z,99835.88
2018-02-09T01:46:31.271Z,99842.60
2018-02-09T01:48:58.895Z,99842.41
2018-02-09T01:51:26.477Z,99831.64
2018-02-09T01:53:54.045Z,99830.02
2018-02-09T01:56:21.686Z,99839.60
2018-02-09T01:58:49.321Z,99847.39
2018-02-09T02:01:16.947Z,99830.42
2018-02-09T02:03:44.515Z,99825.24
2018-02-09T02:06:12.166Z,99827.62
2018-02-09T02:08:39.736Z,99826.77
2018-02-09T02:11:07.372Z,99827.39
2018-02-09T02:13:35.007Z,99828.58
2018-02-09T02:16:02.566Z,99823.73
2018-02-09T02:18:30.144Z,99827.97
2018-02-09T02:20:57.739Z,99823.47
2018-02-09T02:23:25.310Z,99823.41
2018-02-09T02:25:53.078Z,99823.53
2018-02-09T02:28:20.646Z,99824.50
2018-02-09T02:30:48.219Z,99818.47
2018-02-09T02:33:15.868Z,99818.95
2018-02-09T02:35:43.495Z,99815.38
2018-02-09T02:38:11.131Z,99818.13
2018-02-09T02:40:38.712Z,99814.55
2018-02-09T02:43:06.285Z,99821.46
2018-02-09T02:45:33.888Z,99830.61
2018-02-09T02:48:01.470Z,99822.93
2018-02-09T02:50:29.093Z,99828.81
2018-02-09T02:52:56.658Z,99827.13
2018-02-09T02:55:24.286Z,99836.00
2018-02-09T02:57:51.920Z,99834.58
2018-02-09T03:00:19.840Z,99829.05
2018-02-09T03:02:47.471Z,99829.23
2018-02-09T03:05:15.094Z,99831.14
2018-02-09T03:07:42.654Z,99834.96
2018-02-09T03:10:10.291Z,99835.73
2018-02-09T03:12:37.849Z,99837.41
2018-02-09T03:15:05.468Z,99832.98
2018-02-09T03:17:33.015Z,99830.03
2018-02-09T03:20:00.582Z,99826.89
2018-02-09T03:22:28.161Z,99820.47
2018-02-09T03:24:55.718Z,99827.72
2018-02-09T03:27:23.394Z,99827.30
2018-02-09T03:29:50.951Z,99829.21
2018-02-09T03:32:18.525Z,99823.47
2018-02-09T03:34:46.099Z,99824.33
2018-02-09T03:37:13.674Z,99837.27
2018-02-09T03:39:41.367Z,99837.77
2018-02-09T03:42:08.935Z,99848.03
2018-02-09T03:44:36.511Z,99842.12
2018-02-09T03:47:04.086Z,99832.20
2018-02-09T03:49:31.668Z,99830.98
2018-02-09T03:51:59.355Z,99837.09
2018-02-09T03:54:26.970Z,99837.54
2018-02-09T03:56:54.544Z,99838.16
2018-02-09T03:59:22.182Z,99833.36
2018-02-09T04:01:49.745Z,99836.59
2018-02-09T04:04:17.430Z,99835.61
2018-02-09T04:06:45.058Z,99830.84
2018-02-09T04:09:12.692Z,99826.49
2018-02-09T04:11:40.308Z,99828.59
2018-02-09T04:14:07.881Z,99828.52
2018-02-09T04:16:35.505Z,99829.70
2018-02-09T04:19:03.099Z,99828.56
2018-02-09T04:21:30.752Z,99835.74
2018-02-09T04:23:58.410Z,99842.16
2018-02-09T04:26:25.973Z,99835.11
2018-02-09T04:28:53.646Z,99829.28
2018-02-09T04:31:21.234Z,99827.19
2018-02-09T04:33:48.803Z,99832.17
2018-02-09T04:36:16.431Z,99842.81
2018-02-09T04:38:44.005Z,99849.36
2018-02-09T04:41:11.654Z,99844.84
2018-02-09T04:43:39.308Z,99845.44
2018-02-09T04:46:06.877Z,99838.47
2018-02-09T04:48:34.505Z,99845.09
2018-02-09T04:51:02.933Z,99840.49
2018-02-09T04:53:30.661Z,99840.55
2018-02-09T04:55:58.230Z,99837.28
2018-02-09T04:58:25.790Z,99840.42
2018-02-09T05:00:53.371Z,99849.13
2018-02-09T05:03:21.026Z,99844.42
2018-02-09T05:05:48.746Z,99842.33
2018-02-09T05:08:16.367Z,99846.02
2018-02-09T05:10:43.934Z,99839.06
2018-02-09T05:13:11.570Z,99843.00
2018-02-09T05:15:39.194Z,99836.41
2018-02-09T05:18:06.826Z,99834.30
2018-02-09T05:20:34.385Z,99835.52
2018-02-09T05:23:01.968Z,99837.48
2018-02-09T05:25:29.543Z,99835.55
2018-02-09T05:27:57.168Z,99835.26
2018-02-09T05:30:24.777Z,99833.98
2018-02-09T05:32:52.407Z,99835.86
2018-02-09T05:35:19.979Z,99841.11
2018-02-09T05:37:47.615Z,99841.76
2018-02-09T05:40:15.200Z,99836.70
2018-02-09T05:42:42.839Z,99840.48
2018-02-09T05:45:10.410Z,99841.20
2018-02-09T05:47:37.971Z,99847.09
2018-02-09T05:50:05.580Z,99847.75
2018-02-09T05:52:33.149Z,99851.24
2018-02-09T05:55:00.769Z,99851.73
2018-02-09T05:57:28.390Z,99854.49
2018-02-09T05:59:55.950Z,99854.97
2018-02-09T06:02:23.521Z,99863.59
2018-02-09T06:04:51.142Z,99862.55
2018-02-09T06:07:18.781Z,99863.41
2018-02-09T06:09:46.349Z,99870.27
2018-02-09T06:12:14.026Z,99872.05
2018-02-09T06:14:41.596Z,99868.38
2018-02-09T06:17:09.138Z,99874.77
2018-02-09T06:19:36.715Z,99874.17
2018-02-09T06:22:04.295Z,99869.95
2018-02-09T06:24:31.928Z,99873.94
2018-02-09T06:26:59.502Z,99873.67
2018-02-09T06:29:27.122Z,99878.95
2018-02-09T06:31:54.678Z,99878.95
2018-02-09T06:34:22.239Z,99880.30
2018-02-09T06:36:49.805Z,99881.77
2018-02-09T06:39:17.361Z,99875.78
2018-02-09T06:41:44.947Z,99868.94
2018-02-09T06:44:12.550Z,99875.58
2018-02-09T06:46:40.351Z,99879.00
2018-02-09T06:49:07.921Z,99877.07
2018-02-09T06:51:35.551Z,99888.66
2018-02-09T06:54:03.140Z,99889.89
2018-02-09T06:56:30.772Z,99887.22
2018-02-09T06:58:58.347Z,99878.20
2018-02-09T07:01:25.966Z,99879.24
2018-02-09T07:03:53.577Z,99886.69
2018-02-09T07:06:21.139Z,99881.16
2018-02-09T07:08:48.703Z,99876.45
2018-02-09T07:11:16.265Z,99885.20
2018-02-09T07:13:43.893Z,99890.59
2018-02-09T07:16:11.527Z,99895.30
2018-02-09T07:18:39.084Z,99891.55
2018-02-09T07:21:06.758Z,99889.14
2018-02-09T07:23:34.323Z,99895.98
2018-02-09T07:26:01.888Z,99903.14
2018-02-09T07:28:29.460Z,99902.48
2018-02-09T07:30:57.029Z,99904.81
2018-02-09T07:33:24.654Z,99897.67
2018-02-09T07:35:52.228Z,99904.70
2018-02-09T07:38:19.828Z,99903.78
2018-02-09T07:40:47.392Z,99896.78
2018-02-09T07:43:15.073Z,99901.86
2018-02-09T07:45:42.650Z,99890.30
2018-02-09T07:48:10.218Z,99890.11
2018-02-09T07:50:37.820Z,99895.25
2018-02-09T07:53:05.363Z,99894.39
2018-02-09T07:55:32.996Z,99889.81
2018-02-09T07:58:00.646Z,99897.88
2018-02-09T08:00:28.206Z,99898.53
2018-02-09T08:02:55.788Z,99900.14
2018-02-09T08:05:23.367Z,99903.89
2018-02-09T08:07:51.008Z,99911.13
2018-02-09T08:10:18.630Z,99907.70
2018-02-09T08:12:46.258Z,99913.17
2018-02-09T08:15:13.886Z,99902.53
2018-02-09T08:17:41.460Z,99901.52
2018-02-09T08:20:09.049Z,99899.93
2018-02-09T08:22:36.679Z,99900.47
2018-02-09T08:25:04.298Z,99908.16
2018-02-09T08:27:31.936Z,99907.44
2018-02-09T08:29:59.558Z,99895.25
2018-02-09T08:32:27.183Z,99903.02
2018-02-09T08:34:54.784Z,99900.42
2018-02-09T08:37:22.370Z,99897.17
2018-02-09T08:39:49.954Z,99900.63
2018-02-09T08:42:17.541Z,99903.30
2018-02-09T08:44:45.094Z,99902.64
2018-02-09T08:47:12.770Z,99901.08
2018-02-09T08:49:40.387Z,99903.16
2018-02-09T08:52:07.954Z,99898.86
2018-02-09T08:54:35.530Z,99899.03
2018-02-09T08:57:03.155Z,99905.74
2018-02-09T08:59:30.721Z,99899.45
2018-02-09T09:01:58.286Z,99892.59
2018-02-09T09:04:25.932Z,99883.64
2018-02-09T09:06:53.558Z,99885.13
2018-02-09T09:09:21.121Z,99878.34
2018-02-09T09:11:48.704Z,99867.80
2018-02-09T09:14:16.272Z,99862.58
2018-02-09T09:16:43.894Z,99866.54
2018-02-09T09:19:11.461Z,99868.59
2018-02-09T09:21:39.152Z,99860.55
2018-02-09T09:24:06.774Z,99872.44
2018-02-09T09:26:34.404Z,99870.51
2018-02-09T09:29:01.990Z,99874.10
2018-02-09T09:31:29.561Z,99878.06
2018-02-09T09:33:57.156Z,99878.20
2018-02-09T09:36:24.736Z,99885.56
2018-02-09T09:38:52.431Z,99882.99
2018-02-09T09:41:20.003Z,99885.21
2018-02-09T09:43:47.574Z,99885.68
2018-02-09T09:46:15.202Z,99891.93
2018-02-09T09:48:42.830Z,99901.41
2018-02-09T09:51:10.404Z,99901.80
2018-02-09T09:53:37.945Z,99895.48
2018-02-09T09:56:05.558Z,99886.79
2018-02-09T09:58:33.122Z,99879.44
2018-02-09T10:01:00.726Z,99880.47
2018-02-09T10:03:28.294Z,99882.45
2018-02-09T10:05:55.915Z,99885.27
2018-02-09T10:08:23.509Z,99890.02
2018-02-09T10:10:51.126Z,99881.27
2018-02-09T10:13:18.751Z,99871.56
2018-02-09T10:15:46.326Z,99868.47
2018-02-09T10:18:13.903Z,99850.36
2018-02-09T10:20:41.483Z,99855.16
2018-02-09T10:23:09.115Z,99854.72
2018-02-09T10:25:36.691Z,99860.25
2018-02-09T10:28:04.320Z,99847.86
2018-02-09T10:30:31.990Z,99850.63
2018-02-09T10:32:59.555Z,99846.50
2018-02-09T10:35:27.130Z,99853.81
2018-02-09T10:37:54.764Z,99847.64
2018-02-09T10:40:22.330Z,99843.40
2018-02-09T10:42:49.884Z,99837.13
2018-02-09T10:45:17.448Z,99833.84
2018-02-09T10:47:45.087Z,99836.30
2018-02-09T10:50:12.655Z,99834.00
2018-02-09T10:52:40.274Z,99825.75
2018-02-09T10:55:07.911Z,99827.22
2018-02-09T10:57:35.475Z,99820.14
2018-02-09T11:00:03.108Z,99813.80
2018-02-09T11:02:30.673Z,99809.00
2018-02-09T11:04:58.253Z,99799.39
2018-02-09T11:07:25.818Z,99798.42
2018-02-09T11:09:53.477Z,99792.54
2018-02-09T11:12:21.928Z,99789.72
2018-02-09T11:14:49.487Z,99792.59
2018-02-09T11:17:17.155Z,99779.68
2018-02-09T11:19:44.738Z,99783.50
2018-02-09T11:22:12.323Z,99769.25
2018-02-09T11:24:39.991Z,99772.94
2018-02-09T11:27:07.613Z,99773.17
2018-02-09T11:29:35.238Z,99779.47
2018-02-09T11:32:02.876Z,99775.91
2018-02-09T11:34:30.457Z,99770.26
2018-02-09T11:36:58.030Z,99764.42
2018-02-09T11:39:25.617Z,99769.62
2018-02-09T11:41:53.208Z,99773.55
2018-02-09T11:44:20.983Z,99766.89
2018-02-09T11:46:48.563Z,99769.23
2018-02-09T11:49:16.186Z,99771.30
2018-02-09T11:51:43.768Z,99765.25
2018-02-09T11:54:11.338Z,99763.20
2018-02-09T11:56:39.000Z,99760.33
2018-02-09T11:59:06.623Z,99757.30
2018-02-09T12:01:34.298Z,99757.48
2018-02-09T12:04:01.907Z,99755.83
2018-02-09T12:06:29.471Z,99764.04
2018-02-09T12:08:57.124Z,99755.73
2018-02-09T12:11:24.686Z,99754.42
2018-02-09T12:13:52.406Z,99756.87
2018-02-09T12:16:20.038Z,99756.23
2018-02-09T12:18:47.721Z,99749.39
2018-02-09T12:21:15.297Z,99750.67
2018-02-09T12:23:42.875Z,99750.53
2018-02-09T12:26:10.429Z,99753.73
2018-02-09T12:28:38.047Z,99754.63
2018-02-09T12:31:05.614Z,99759.83
2018-02-09T12:33:33.182Z,99753.23
2018-02-09T12:36:00.873Z,99751.84
2018-02-09T12:38:28.443Z,99752.25
2018-02-09T12:40:56.090Z,99753.01
2018-02-09T12:43:23.709Z,99753.20
2018-02-09T12:45:51.282Z,99752.34
2018-02-09T12:48:18.939Z,99748.16
2018-02-09T12:50:46.531Z,99747.63
2018-02-09T12:53:14.164Z,99746.82
2018-02-09T12:55:41.730Z,99742.73
2018-02-09T12:58:09.351Z,99746.92
2018-02-09T13:00:36.991Z,99745.92
2018-02-09T13:03:04.570Z,99742.64
2018-02-09T13:05:32.272Z,99737.62
2018-02-09T13:07:59.844Z,99741.00
2018-02-09T13:10:27.417Z,99739.72
2018-02-09T13:13:08.914Z,99743.09
2018-02-09T13:15:36.554Z,99745.20
2018-02-09T13:18:04.223Z,99742.09
2018-02-09T13:20:31.796Z,99739.00
2018-02-09T13:23:11.404Z,99744.08
2018-02-09T13:25:38.973Z,99739.09
2018-02-09T13:28:06.541Z,99751.30
2018-02-09T13:30:34.125Z,99742.78
2018-02-09T13:33:13.582Z,99735.34
2018-02-09T13:35:41.255Z,99739.80
2018-02-09T13:38:08.878Z,99741.23
2018-02-09T13:40:36.502Z,99744.05
2018-02-09T13:43:04.091Z,99748.08
2018-02-09T13:45:31.695Z,99749.08
2018-02-09T13:47:59.299Z,99759.05
2018-02-09T13:50:26.866Z,99751.96
2018-02-09T13:52:54.427Z,99755.98
2018-02-09T13:55:22.012Z,99759.05
2018-02-09T13:57:49.577Z,99756.03
2018-02-09T14:00:17.299Z,99757.20
2018-02-09T14:02:44.943Z,99759.98
2018-02-09T14:05:12.503Z,99758.40
2018-02-09T14:07:40.074Z,99756.13
2018-02-09T14:10:07.702Z,99763.73
2018-02-09T14:12:35.326Z,99761.88
2018-02-09T14:15:02.898Z,99763.91
2018-02-09T14:17:30.503Z,99762.11
2018-02-09T14:19:58.080Z,99765.52
2018-02-09T14:22:25.646Z,99762.38
2018-02-09T14:24:53.316Z,99763.89
2018-02-09T14:27:20.890Z,99764.69
2018-02-09T14:29:48.455Z,99762.09
2018-02-09T14:32:16.030Z,99764.41
2018-02-09T14:34:43.655Z,99761.40
2018-02-09T14:37:11.221Z,99769.62
2018-02-09T14:39:38.850Z,99763.25
2018-02-09T14:42:06.473Z,99759.38
2018-02-09T14:44:34.038Z,99758.02
2018-02-09T14:47:01.613Z,99771.94
2018-02-09T14:49:29.256Z,99770.27
2018-02-09T14:51:56.864Z,99777.08
2018-02-09T14:54:24.508Z,99775.13
2018-02-09T14:56:52.086Z,99777.58
2018-02-09T14:59:19.780Z,99776.96
2018-02-09T15:01:47.347Z,99772.66
2018-02-09T15:04:14.975Z,99781.52
2018-02-09T15:06:43.774Z,99785.05
2018-02-09T15:09:11.336Z,99795.20
2018-02-09T15:11:38.898Z,99785.59
2018-02-09T15:14:06.463Z,99788.48
2018-02-09T15:16:34.245Z,99779.95
2018-02-09T15:19:01.851Z,99783.50
2018-02-09T15:21:29.436Z,99784.20
2018-02-09T15:23:57.082Z,99790.34
2018-02-09T15:26:25.509Z,99803.09
2018-02-09T15:28:53.085Z,99802.94
2018-02-09T15:31:20.716Z,99796.89
2018-02-09T15:33:48.386Z,99800.09
2018-02-09T15:36:16.031Z,99790.79
2018-02-09T15:38:43.609Z,99797.58
2018-02-09T15:41:11.201Z,99799.26
2018-02-09T15:43:38.846Z,99798.58
2018-02-09T15:46:06.484Z,99804.15
2018-02-09T15:48:34.985Z,99804.80
2018-02-09T15:51:02.610Z,99805.53
2018-02-09T15:53:30.292Z,99802.25
2018-02-09T15:55:57.858Z,99803.46
2018-02-09T15:58:25.422Z,99813.05
2018-02-09T16:00:53.574Z,99814.02
2018-02-09T16:03:21.203Z,99826.03
2018-02-09T16:05:48.806Z,99823.47
2018-02-09T16:08:16.422Z,99826.53
2018-02-09T16:10:43.990Z,99828.91
2018-02-09T16:13:11.530Z,99824.89
2018-02-09T16:15:39.097Z,99830.09
2018-02-09T16:18:06.655Z,99826.41
2018-02-09T16:20:34.230Z,99824.84
2018-02-09T16:23:01.796Z,99832.80
2018-02-09T16:25:29.451Z,99826.88
2018-02-09T16:27:57.125Z,99827.34
2018-02-09T16:30:24.748Z,99827.98
2018-02-09T16:32:52.325Z,99828.09
2018-02-09T16:35:19.955Z,99827.59
2018-02-09T16:37:47.592Z,99837.57
2018-02-09T16:40:15.157Z,99826.22
2018-02-09T16:42:43.662Z,99833.97
2018-02-09T16:45:11.236Z,99829.80
2018-02-09T16:47:38.824Z,99833.95
2018-02-09T16:50:06.433Z,99832.44
2018-02-09T16:52:33.994Z,99827.52
2018-02-09T16:55:01.632Z,99834.12
2018-02-09T16:57:30.014Z,99822.78
2018-02-09T16:59:57.706Z,99823.50
2018-02-09T17:02:25.273Z,99821.48
2018-02-09T17:04:52.904Z,99832.02
2018-02-09T17:07:20.535Z,99828.92
2018-02-09T17:09:48.116Z,99840.19
2018-02-09T17:12:15.787Z,99828.16
2018-02-09T17:14:43.349Z,99828.88
2018-02-09T17:17:10.905Z,99828.18
2018-02-09T17:19:38.478Z,99825.54
2018-02-09T17:22:06.360Z,99828.52
2018-02-09T17:24:33.979Z,99833.64
2018-02-09T17:27:01.554Z,99836.33
2018-02-09T17:29:29.184Z,99837.89
2018-02-09T17:31:56.777Z,99851.81
2018-02-09T17:34:24.353Z,99857.64
2018-02-09T17:36:52.007Z,99853.09
2018-02-09T17:39:19.625Z,99856.81
2018-02-09T17:41:47.203Z,99861.36
2018-02-09T17:44:14.779Z,99852.23
2018-02-09T17:46:42.360Z,99856.57
2018-02-09T17:49:09.998Z,99855.95
2018-02-09T17:51:37.623Z,99875.88
2018-02-09T17:54:05.307Z,99873.89
2018-02-09T17:56:32.934Z,99869.54
2018-02-09T17:59:00.509Z,99874.67
2018-02-09T18:01:28.083Z,99880.67
2018-02-09T18:03:55.711Z,99881.13
2018-02-09T18:06:23.278Z,99878.80
2018-02-09T18:08:50.844Z,99880.29
2018-02-09T18:11:18.514Z,99878.26
2018-02-09T18:13:46.098Z,99873.31
2018-02-09T18:16:13.747Z,99878.27
2018-02-09T18:18:41.322Z,99882.97
2018-02-09T18:21:08.889Z,99883.45
2018-02-09T18:23:36.803Z,99883.49
2018-02-09T18:26:04.498Z,99879.63
2018-02-09T18:28:32.178Z,99873.73
2018-02-09T18:30:59.789Z,99873.88
2018-02-09T18:33:27.693Z,99878.40
2018-02-09T18:35:55.341Z,99886.50
2018-02-09T18:38:22.901Z,99887.47
2018-02-09T18:40:50.534Z,99888.31
2018-02-09T18:43:18.241Z,99893.58
2018-02-09T18:45:45.869Z,99892.24
2018-02-09T18:48:13.470Z,99888.05
2018-02-09T18:50:41.033Z,99888.41
2018-02-09T18:53:08.618Z,99889.55
2018-02-09T18:55:36.241Z,99890.84
2018-02-09T18:58:03.822Z,99902.73
2018-02-09T19:00:31.454Z,99908.16
2018-02-09T19:02:59.149Z,99906.67
2018-02-09T19:05:26.753Z,99908.21
2018-02-09T19:07:54.322Z,99914.67
2018-02-09T19:10:21.966Z,99917.76
2018-02-09T19:12:49.556Z,99916.92
2018-02-09T19:15:17.144Z,99921.27
2018-02-09T19:17:44.755Z,99928.28
2018-02-09T19:20:12.461Z,99925.06
2018-02-09T19:22:40.022Z,99929.89
2018-02-09T19:25:07.645Z,99933.80
2018-02-09T19:27:35.211Z,99937.62
2018-02-09T19:30:02.778Z,99946.63
2018-02-09T19:32:30.373Z,99945.36
2018-02-09T19:34:57.995Z,99942.67
2018-02-09T19:37:25.674Z,99941.73
2018-02-09T19:39:53.287Z,99940.76
2018-02-09T19:42:20.859Z,99940.17
2018-02-09T19:44:48.459Z,99949.64
2018-02-09T19:47:16.030Z,99956.75
2018-02-09T19:49:43.618Z,99951.62
2018-02-09T19:52:11.254Z,99960.57
2018-02-09T19:54:38.946Z,99971.45
2018-02-09T19:57:06.526Z,99972.91
2018-02-09T19:59:34.165Z,99968.01
2018-02-09T20:02:01.806Z,99968.81
2018-02-09T20:04:29.423Z,99970.64
2018-02-09T20:06:57.057Z,99972.56
2018-02-09T20:09:24.687Z,99967.73
2018-02-09T20:11:52.268Z,99974.80
2018-02-09T20:14:19.854Z,99973.89
2018-02-09T20:16:47.432Z,99981.39
2018-02-09T20:19:15.358Z,99987.20
2018-02-09T20:21:42.931Z,99980.07
2018-02-09T20:24:10.552Z,99977.57
2018-02-09T20:26:38.125Z,99973.77
2018-02-09T20:29:05.767Z,99973.17
2018-02-09T20:31:33.342Z,99974.42
2018-02-09T20:34:00.926Z,99960.73
2018-02-09T20:36:28.569Z,99963.56
2018-02-09T20:38:56.316Z,99952.45
2018-02-09T20:41:23.991Z,99952.51
2018-02-09T20:43:51.563Z,99950.94
2018-02-09T20:46:19.119Z,99955.27
2018-02-09T20:48:46.758Z,99948.98
2018-02-09T20:51:14.391Z,99952.34
2018-02-09T20:53:42.026Z,99944.11
2018-02-09T20:56:09.657Z,99935.05
2018-02-09T20:58:37.363Z,99931.69
2018-02-09T21:01:05.135Z,99928.70
2018-02-09T21:03:32.729Z,99930.53
2018-02-09T21:06:00.298Z,99930.39
2018-02-09T21:08:27.867Z,99937.11
2018-02-09T21:10:55.451Z,99944.36
2018-02-09T21:13:23.077Z,99943.67
2018-02-09T21:15:50.710Z,99941.56
2018-02-09T21:18:18.287Z,99921.65
2018-02-09T21:20:45.831Z,99918.43
2018-02-09T21:23:13.401Z,99909.92
2018-02-09T21:25:40.966Z,99908.41
2018-02-09T21:30:42.453Z,99914.96
2018-02-09T21:33:10.166Z,99913.27
2018-02-09T21:35:37.793Z,99919.93
2018-02-09T21:38:05.427Z,99920.41
2018-02-09T21:40:33.001Z,99910.75
2018-02-09T21:43:00.621Z,99908.03
2018-02-09T21:45:28.331Z,99909.25
2018-02-09T21:47:55.898Z,99904.13
2018-02-09T21:50:23.454Z,99914.42
2018-02-09T21:52:51.026Z,99913.19
2018-02-09T21:55:18.598Z,99917.72
2018-02-09T21:57:46.217Z,99919.34
2018-02-09T22:00:13.837Z,99921.45
2018-02-09T22:02:41.469Z,99932.16
2018-02-09T22:05:09.044Z,99926.55
2018-02-09T22:07:36.600Z,99923.83
2018-02-09T22:10:04.166Z,99920.88
2018-02-09T22:12:31.725Z,99938.34
2018-02-09T22:14:59.286Z,99945.22
2018-02-09T22:17:26.880Z,99946.72
2018-02-09T22:19:54.503Z,99940.36
2018-02-09T22:22:22.070Z,99934.23
2018-02-09T22:24:49.633Z,99928.31
2018-02-09T22:27:17.235Z,99925.36
2018-02-09T22:29:44.806Z,99913.28
2018-02-09T22:32:12.426Z,99918.96
2018-02-09T22:34:40.073Z,99912.75
2018-02-09T22:37:07.651Z,99904.05
2018-02-09T22:39:35.298Z,99892.30
2018-02-09T22:42:02.881Z,99894.33
2018-02-09T22:44:30.439Z,99897.13
2018-02-09T22:46:58.066Z,99878.04
2018-02-09T22:49:25.694Z,99886.15
2018-02-09T22:51:53.310Z,99887.89
2018-02-09T22:54:20.865Z,99870.08
2018-02-09T22:56:48.475Z,99869.91
2018-02-09T22:59:16.063Z,99880.13
2018-02-09T23:01:43.682Z,99874.86
2018-02-09T23:04:11.310Z,99872.39
2018-02-09T23:06:38.940Z,99870.27
2018-02-09T23:09:06.614Z,99865.75
2018-02-09T23:11:34.234Z,99854.99
2018-02-09T23:14:01.854Z,99852.66
2018-02-09T23:16:29.431Z,99856.38
2018-02-09T23:18:56.992Z,99862.02
2018-02-09T23:21:24.622Z,99859.59
2018-02-09T23:23:52.183Z,99856.52
2018-02-09T23:26:19.820Z,99848.23
2018-02-09T23:28:47.402Z,99853.50
2018-02-09T23:31:15.023Z,99849.45
2018-02-09T23:33:42.594Z,99846.34
2018-02-09T23:36:10.154Z,99844.48
2018-02-09T23:38:37.822Z,99853.75
2018-02-09T23:41:05.385Z,99847.85
2018-02-09T23:43:32.950Z,99842.06
2018-02-09T23:46:00.525Z,99850.58
2018-02-09T23:48:28.150Z,99855.34
2018-02-09T23:50:55.722Z,99845.69
2018-02-09T23:53:23.290Z,99842.56
2018-02-09T23:55:51.007Z,99848.40
2018-02-09T23:58:18.611Z,99859.80
